sensor_id;sensor_type;location;lat;lon;timestamp;temperature;humidity
51839;DHT22;37886;53.174;6.368;2023-03-26T00:00:11;7.80;99.90
51839;DHT22;37886;53.174;6.368;2023-03-26T00:02:37;7.80;99.90
51839;DHT22;37886;53.174;6.368;2023-03-26T00:05:05;7.80;99.90
51839;DHT22;37886;53.174;6.368;2023-03-26T00:07:31;7.70;99.90
51839;DHT22;37886;53.174;6.368;2023-03-26T00:09:57;7.70;99.90
51839;DHT22;37886;53.174;6.368;2023-03-26T00:12:26;7.60;99.90
51839;DHT22;37886;53.174;6.368;2023-03-26T00:14:52;7.60;99.90
51839;DHT22;37886;53.174;6.368;2023-03-26T00:17:19;7.50;99.90
51839;DHT22;37886;53.174;6.368;2023-03-26T00:19:45;7.50;99.90
51839;DHT22;37886;53.174;6.368;2023-03-26T00:22:11;7.50;99.90
51839;DHT22;37886;53.174;6.368;2023-03-26T00:24:41;7.50;99.90
51839;DHT22;37886;53.174;6.368;2023-03-26T00:27:10;7.50;99.90
51839;DHT22;37886;53.174;6.368;2023-03-26T00:29:36;7.50;99.90
51839;DHT22;37886;53.174;6.368;2023-03-26T00:32:04;7.50;99.90
51839;DHT22;37886;53.174;6.368;2023-03-26T00:34:30;7.50;99.90
51839;DHT22;37886;53.174;6.368;2023-03-26T00:36:59;7.40;99.90
51839;DHT22;37886;53.174;6.368;2023-03-26T00:39:27;7.50;99.90
51839;DHT22;37886;53.174;6.368;2023-03-26T00:41:54;7.40;99.90
51839;DHT22;37886;53.174;6.368;2023-03-26T00:44:20;7.40;99.90
51839;DHT22;37886;53.174;6.368;2023-03-26T00:46:46;7.40;99.90
51839;DHT22;37886;53.174;6.368;2023-03-26T00:49:12;7.40;99.90
51839;DHT22;37886;53.174;6.368;2023-03-26T00:51:40;7.40;99.90
51839;DHT22;37886;53.174;6.368;2023-03-26T00:54:07;7.40;99.90
51839;DHT22;37886;53.174;6.368;2023-03-26T00:56:34;7.40;99.90
51839;DHT22;37886;53.174;6.368;2023-03-26T00:59:01;7.40;99.90
51839;DHT22;37886;53.174;6.368;2023-03-26T01:01:27;7.40;99.90
51839;DHT22;37886;53.174;6.368;2023-03-26T01:03:56;7.30;99.90
51839;DHT22;37886;53.174;6.368;2023-03-26T01:06:29;7.30;99.90
51839;DHT22;37886;53.174;6.368;2023-03-26T01:09:13;7.30;99.90
51839;DHT22;37886;53.174;6.368;2023-03-26T01:11:40;7.30;99.90
51839;DHT22;37886;53.174;6.368;2023-03-26T01:14:12;7.30;99.90
51839;DHT22;37886;53.174;6.368;2023-03-26T01:16:51;7.30;99.90
51839;DHT22;37886;53.174;6.368;2023-03-26T01:22:08;7.30;99.90
51839;DHT22;37886;53.174;6.368;2023-03-26T01:24:38;7.30;99.90
51839;DHT22;37886;53.174;6.368;2023-03-26T01:27:17;7.20;99.90
51839;DHT22;37886;53.174;6.368;2023-03-26T01:30:04;7.20;99.90
51839;DHT22;37886;53.174;6.368;2023-03-26T01:35:29;7.20;99.90
51839;DHT22;37886;53.174;6.368;2023-03-26T01:41:05;7.20;99.90
51839;DHT22;37886;53.174;6.368;2023-03-26T01:43:52;7.10;99.90
51839;DHT22;37886;53.174;6.368;2023-03-26T01:46:21;7.10;99.90
51839;DHT22;37886;53.174;6.368;2023-03-26T01:48:48;7.00;99.90
51839;DHT22;37886;53.174;6.368;2023-03-26T01:51:25;7.00;99.90
51839;DHT22;37886;53.174;6.368;2023-03-26T01:53:52;6.90;99.90
51839;DHT22;37886;53.174;6.368;2023-03-26T01:56:27;6.90;99.90
51839;DHT22;37886;53.174;6.368;2023-03-26T01:59:12;6.80;99.90
51839;DHT22;37886;53.174;6.368;2023-03-26T02:01:47;6.80;99.90
51839;DHT22;37886;53.174;6.368;2023-03-26T02:07:24;6.80;99.90
51839;DHT22;37886;53.174;6.368;2023-03-26T02:10:06;6.80;99.90
51839;DHT22;37886;53.174;6.368;2023-03-26T02:12:35;6.70;99.90
51839;DHT22;37886;53.174;6.368;2023-03-26T02:15:03;6.70;99.90
51839;DHT22;37886;53.174;6.368;2023-03-26T02:17:32;6.70;99.90
51839;DHT22;37886;53.174;6.368;2023-03-26T02:19:58;6.70;99.90
51839;DHT22;37886;53.174;6.368;2023-03-26T02:22:23;6.60;99.90
51839;DHT22;37886;53.174;6.368;2023-03-26T02:24:54;6.70;99.90
51839;DHT22;37886;53.174;6.368;2023-03-26T02:27:20;6.70;99.90
51839;DHT22;37886;53.174;6.368;2023-03-26T02:29:46;6.70;99.90
51839;DHT22;37886;53.174;6.368;2023-03-26T02:32:12;6.70;99.90
51839;DHT22;37886;53.174;6.368;2023-03-26T02:34:39;6.70;99.90
51839;DHT22;37886;53.174;6.368;2023-03-26T02:37:05;6.70;99.90
51839;DHT22;37886;53.174;6.368;2023-03-26T02:39:31;6.70;99.90
51839;DHT22;37886;53.174;6.368;2023-03-26T02:41:59;6.70;99.90
51839;DHT22;37886;53.174;6.368;2023-03-26T02:44:24;6.70;99.90
51839;DHT22;37886;53.174;6.368;2023-03-26T02:46:51;6.70;99.90
51839;DHT22;37886;53.174;6.368;2023-03-26T02:49:17;6.70;99.90
51839;DHT22;37886;53.174;6.368;2023-03-26T02:51:43;6.70;99.90
51839;DHT22;37886;53.174;6.368;2023-03-26T02:54:09;6.70;99.90
51839;DHT22;37886;53.174;6.368;2023-03-26T02:56:35;6.70;99.90
51839;DHT22;37886;53.174;6.368;2023-03-26T02:59:01;6.70;99.90
51839;DHT22;37886;53.174;6.368;2023-03-26T03:01:27;6.70;99.90
51839;DHT22;37886;53.174;6.368;2023-03-26T03:03:55;6.70;99.90
51839;DHT22;37886;53.174;6.368;2023-03-26T03:06:21;6.80;99.90
51839;DHT22;37886;53.174;6.368;2023-03-26T03:08:47;6.70;99.90
51839;DHT22;37886;53.174;6.368;2023-03-26T03:11:15;6.70;99.90
51839;DHT22;37886;53.174;6.368;2023-03-26T03:13:43;6.70;99.90
51839;DHT22;37886;53.174;6.368;2023-03-26T03:16:10;6.70;99.90
51839;DHT22;37886;53.174;6.368;2023-03-26T03:18:36;6.70;99.90
51839;DHT22;37886;53.174;6.368;2023-03-26T03:21:03;6.70;99.90
51839;DHT22;37886;53.174;6.368;2023-03-26T03:23:29;6.60;99.90
51839;DHT22;37886;53.174;6.368;2023-03-26T03:25:56;6.60;99.90
51839;DHT22;37886;53.174;6.368;2023-03-26T03:28:23;6.60;99.90
51839;DHT22;37886;53.174;6.368;2023-03-26T03:30:49;6.70;99.90
51839;DHT22;37886;53.174;6.368;2023-03-26T03:33:20;6.60;99.90
51839;DHT22;37886;53.174;6.368;2023-03-26T03:35:48;6.50;99.90
51839;DHT22;37886;53.174;6.368;2023-03-26T03:38:15;6.40;99.90
51839;DHT22;37886;53.174;6.368;2023-03-26T03:40:41;6.30;99.90
51839;DHT22;37886;53.174;6.368;2023-03-26T03:43:07;6.20;99.90
51839;DHT22;37886;53.174;6.368;2023-03-26T03:45:32;6.10;99.90
51839;DHT22;37886;53.174;6.368;2023-03-26T03:47:58;6.00;99.90
51839;DHT22;37886;53.174;6.368;2023-03-26T03:50:24;5.90;99.90
51839;DHT22;37886;53.174;6.368;2023-03-26T03:52:51;5.70;99.90
51839;DHT22;37886;53.174;6.368;2023-03-26T03:55:17;5.60;99.90
51839;DHT22;37886;53.174;6.368;2023-03-26T03:57:42;5.50;99.90
51839;DHT22;37886;53.174;6.368;2023-03-26T04:00:09;5.40;99.90
51839;DHT22;37886;53.174;6.368;2023-03-26T04:02:36;5.40;99.90
51839;DHT22;37886;53.174;6.368;2023-03-26T04:05:03;5.30;99.90
51839;DHT22;37886;53.174;6.368;2023-03-26T04:07:30;5.20;99.90
51839;DHT22;37886;53.174;6.368;2023-03-26T04:09:57;5.10;99.90
51839;DHT22;37886;53.174;6.368;2023-03-26T04:12:26;5.10;99.90
51839;DHT22;37886;53.174;6.368;2023-03-26T04:14:52;5.10;99.90
51839;DHT22;37886;53.174;6.368;2023-03-26T04:17:18;5.00;99.90
51839;DHT22;37886;53.174;6.368;2023-03-26T04:19:47;5.00;99.90
51839;DHT22;37886;53.174;6.368;2023-03-26T04:22:12;5.00;99.90
51839;DHT22;37886;53.174;6.368;2023-03-26T04:24:42;5.10;99.90
51839;DHT22;37886;53.174;6.368;2023-03-26T04:27:15;5.10;99.90
51839;DHT22;37886;53.174;6.368;2023-03-26T04:29:44;5.20;99.90
51839;DHT22;37886;53.174;6.368;2023-03-26T04:32:22;5.30;99.90
51839;DHT22;37886;53.174;6.368;2023-03-26T04:34:51;5.40;99.90
51839;DHT22;37886;53.174;6.368;2023-03-26T04:37:37;5.50;99.90
51839;DHT22;37886;53.174;6.368;2023-03-26T04:40:15;5.60;99.90
51839;DHT22;37886;53.174;6.368;2023-03-26T04:42:41;5.60;99.90
51839;DHT22;37886;53.174;6.368;2023-03-26T04:45:12;5.60;99.90
51839;DHT22;37886;53.174;6.368;2023-03-26T04:47:38;5.70;99.90
51839;DHT22;37886;53.174;6.368;2023-03-26T04:50:07;5.70;99.90
51839;DHT22;37886;53.174;6.368;2023-03-26T04:52:34;5.70;99.90
51839;DHT22;37886;53.174;6.368;2023-03-26T04:55:06;5.70;99.90
51839;DHT22;37886;53.174;6.368;2023-03-26T04:57:40;5.60;99.90
51839;DHT22;37886;53.174;6.368;2023-03-26T05:00:08;5.50;99.90
51839;DHT22;37886;53.174;6.368;2023-03-26T05:02:45;5.40;99.90
51839;DHT22;37886;53.174;6.368;2023-03-26T05:05:15;5.30;99.90
51839;DHT22;37886;53.174;6.368;2023-03-26T05:07:41;5.20;99.90
51839;DHT22;37886;53.174;6.368;2023-03-26T05:10:10;5.20;99.90
51839;DHT22;37886;53.174;6.368;2023-03-26T05:12:38;5.10;99.90
51839;DHT22;37886;53.174;6.368;2023-03-26T05:15:04;5.00;99.90
51839;DHT22;37886;53.174;6.368;2023-03-26T05:17:30;4.90;99.90
51839;DHT22;37886;53.174;6.368;2023-03-26T05:19:59;4.80;99.90
51839;DHT22;37886;53.174;6.368;2023-03-26T05:22:25;4.70;99.90
51839;DHT22;37886;53.174;6.368;2023-03-26T05:24:52;4.80;99.90
51839;DHT22;37886;53.174;6.368;2023-03-26T05:27:21;4.70;99.90
51839;DHT22;37886;53.174;6.368;2023-03-26T05:29:47;4.80;99.90
51839;DHT22;37886;53.174;6.368;2023-03-26T05:32:12;4.80;99.90
51839;DHT22;37886;53.174;6.368;2023-03-26T05:34:39;4.80;99.90
51839;DHT22;37886;53.174;6.368;2023-03-26T05:37:05;4.90;99.90
51839;DHT22;37886;53.174;6.368;2023-03-26T05:39:32;4.90;99.90
51839;DHT22;37886;53.174;6.368;2023-03-26T05:41:57;4.90;99.90
51839;DHT22;37886;53.174;6.368;2023-03-26T05:44:23;4.90;99.90
51839;DHT22;37886;53.174;6.368;2023-03-26T05:46:49;5.00;99.90
51839;DHT22;37886;53.174;6.368;2023-03-26T05:49:15;5.10;99.90
51839;DHT22;37886;53.174;6.368;2023-03-26T05:51:41;5.10;99.90
51839;DHT22;37886;53.174;6.368;2023-03-26T05:54:07;5.20;99.90
51839;DHT22;37886;53.174;6.368;2023-03-26T05:56:32;5.30;99.90
51839;DHT22;37886;53.174;6.368;2023-03-26T05:58:58;5.40;99.90
51839;DHT22;37886;53.174;6.368;2023-03-26T06:01:24;5.40;99.90
51839;DHT22;37886;53.174;6.368;2023-03-26T06:03:50;5.50;99.90
51839;DHT22;37886;53.174;6.368;2023-03-26T06:06:18;5.50;99.90
51839;DHT22;37886;53.174;6.368;2023-03-26T06:08:47;5.50;99.90
51839;DHT22;37886;53.174;6.368;2023-03-26T06:11:18;5.60;99.90
51839;DHT22;37886;53.174;6.368;2023-03-26T06:13:44;5.70;99.90
51839;DHT22;37886;53.174;6.368;2023-03-26T06:16:12;5.70;99.90
51839;DHT22;37886;53.174;6.368;2023-03-26T06:18:38;5.70;99.90
51839;DHT22;37886;53.174;6.368;2023-03-26T06:21:05;5.80;99.90
51839;DHT22;37886;53.174;6.368;2023-03-26T06:23:32;5.80;99.90
51839;DHT22;37886;53.174;6.368;2023-03-26T06:25:58;5.90;99.90
51839;DHT22;37886;53.174;6.368;2023-03-26T06:28:24;5.90;99.90
51839;DHT22;37886;53.174;6.368;2023-03-26T06:30:50;6.00;99.90
51839;DHT22;37886;53.174;6.368;2023-03-26T06:33:16;6.00;99.90
51839;DHT22;37886;53.174;6.368;2023-03-26T06:35:43;6.10;99.90
51839;DHT22;37886;53.174;6.368;2023-03-26T06:38:10;6.20;99.90
51839;DHT22;37886;53.174;6.368;2023-03-26T06:40:42;6.20;99.90
51839;DHT22;37886;53.174;6.368;2023-03-26T06:43:08;6.30;99.90
51839;DHT22;37886;53.174;6.368;2023-03-26T06:45:39;6.30;99.90
51839;DHT22;37886;53.174;6.368;2023-03-26T06:48:05;6.50;99.90
51839;DHT22;37886;53.174;6.368;2023-03-26T06:50:31;6.50;99.90
51839;DHT22;37886;53.174;6.368;2023-03-26T06:53:00;6.50;99.90
51839;DHT22;37886;53.174;6.368;2023-03-26T06:55:26;6.50;99.90
51839;DHT22;37886;53.174;6.368;2023-03-26T06:57:55;6.50;99.90
51839;DHT22;37886;53.174;6.368;2023-03-26T07:00:23;6.60;99.90
51839;DHT22;37886;53.174;6.368;2023-03-26T07:02:50;6.50;99.90
51839;DHT22;37886;53.174;6.368;2023-03-26T07:05:16;6.50;99.90
51839;DHT22;37886;53.174;6.368;2023-03-26T07:07:41;6.60;99.90
51839;DHT22;37886;53.174;6.368;2023-03-26T07:10:08;6.70;99.90
51839;DHT22;37886;53.174;6.368;2023-03-26T07:12:34;6.80;99.90
51839;DHT22;37886;53.174;6.368;2023-03-26T07:15:01;6.80;99.90
51839;DHT22;37886;53.174;6.368;2023-03-26T07:17:28;6.90;99.90
51839;DHT22;37886;53.174;6.368;2023-03-26T07:19:54;7.00;99.90
51839;DHT22;37886;53.174;6.368;2023-03-26T07:22:22;7.00;99.90
51839;DHT22;37886;53.174;6.368;2023-03-26T07:24:49;7.10;99.90
51839;DHT22;37886;53.174;6.368;2023-03-26T07:27:34;7.20;99.90
51839;DHT22;37886;53.174;6.368;2023-03-26T07:33:14;7.20;99.90
51839;DHT22;37886;53.174;6.368;2023-03-26T07:35:52;7.30;99.90
51839;DHT22;37886;53.174;6.368;2023-03-26T07:38:46;7.30;99.90
51839;DHT22;37886;53.174;6.368;2023-03-26T07:41:44;7.30;99.90
51839;DHT22;37886;53.174;6.368;2023-03-26T07:46:42;7.30;99.90
51839;DHT22;37886;53.174;6.368;2023-03-26T07:49:12;7.20;99.90
51839;DHT22;37886;53.174;6.368;2023-03-26T07:51:38;7.20;99.90
51839;DHT22;37886;53.174;6.368;2023-03-26T07:54:05;7.30;99.90
51839;DHT22;37886;53.174;6.368;2023-03-26T07:56:55;7.20;99.90
51839;DHT22;37886;53.174;6.368;2023-03-26T08:05:56;7.00;99.90
51839;DHT22;37886;53.174;6.368;2023-03-26T08:11:25;7.10;99.90
51839;DHT22;37886;53.174;6.368;2023-03-26T08:16:45;7.10;99.90
51839;DHT22;37886;53.174;6.368;2023-03-26T08:19:37;7.10;99.90
51839;DHT22;37886;53.174;6.368;2023-03-26T08:22:22;7.40;99.90
51839;DHT22;37886;53.174;6.368;2023-03-26T08:28:19;7.90;99.90
51839;DHT22;37886;53.174;6.368;2023-03-26T08:30:48;8.20;99.90
51839;DHT22;37886;53.174;6.368;2023-03-26T08:33:18;8.10;99.90
51839;DHT22;37886;53.174;6.368;2023-03-26T08:35:45;8.10;99.90
51839;DHT22;37886;53.174;6.368;2023-03-26T08:38:14;8.20;99.90
51839;DHT22;37886;53.174;6.368;2023-03-26T09:00:41;8.50;99.90
51839;DHT22;37886;53.174;6.368;2023-03-26T09:03:20;8.50;99.90
51839;DHT22;37886;53.174;6.368;2023-03-26T09:16:39;8.70;99.90
51839;DHT22;37886;53.174;6.368;2023-03-26T09:33:51;8.80;99.90
51839;DHT22;37886;53.174;6.368;2023-03-26T09:42:16;9.00;99.90
51839;DHT22;37886;53.174;6.368;2023-03-26T09:45:17;9.00;99.90
51839;DHT22;37886;53.174;6.368;2023-03-26T09:53:46;8.90;99.90
51839;DHT22;37886;53.174;6.368;2023-03-26T09:56:22;9.00;99.90
51839;DHT22;37886;53.174;6.368;2023-03-26T10:02:01;9.00;99.90
51839;DHT22;37886;53.174;6.368;2023-03-26T10:10:32;9.30;99.90
51839;DHT22;37886;53.174;6.368;2023-03-26T10:13:26;9.20;99.90
51839;DHT22;37886;53.174;6.368;2023-03-26T10:18:48;9.30;99.90
51839;DHT22;37886;53.174;6.368;2023-03-26T10:31:51;9.40;99.90
51839;DHT22;37886;53.174;6.368;2023-03-26T10:37:35;9.20;99.90
51839;DHT22;37886;53.174;6.368;2023-03-26T10:40:13;9.10;99.90
51839;DHT22;37886;53.174;6.368;2023-03-26T10:57:00;9.30;99.90
51839;DHT22;37886;53.174;6.368;2023-03-26T10:59:27;9.30;99.90
51839;DHT22;37886;53.174;6.368;2023-03-26T11:07:53;9.00;99.90
51839;DHT22;37886;53.174;6.368;2023-03-26T11:13:20;9.30;99.90
51839;DHT22;37886;53.174;6.368;2023-03-26T11:17:01;9.50;99.90
51839;DHT22;37886;53.174;6.368;2023-03-26T11:19:41;9.20;99.90
51839;DHT22;37886;53.174;6.368;2023-03-26T11:32:43;9.80;99.90
51839;DHT22;37886;53.174;6.368;2023-03-26T11:35:25;9.50;99.90
51839;DHT22;37886;53.174;6.368;2023-03-26T11:37:55;9.30;99.90
51839;DHT22;37886;53.174;6.368;2023-03-26T11:40:36;9.30;99.90
51839;DHT22;37886;53.174;6.368;2023-03-26T11:43:07;9.20;99.90
51839;DHT22;37886;53.174;6.368;2023-03-26T11:45:37;9.30;99.90
51839;DHT22;37886;53.174;6.368;2023-03-26T11:50:37;9.40;99.90
51839;DHT22;37886;53.174;6.368;2023-03-26T11:53:29;9.40;99.90
51839;DHT22;37886;53.174;6.368;2023-03-26T11:56:16;9.20;99.90
51839;DHT22;37886;53.174;6.368;2023-03-26T11:59:13;9.20;99.90
51839;DHT22;37886;53.174;6.368;2023-03-26T12:02:15;9.40;99.90
51839;DHT22;37886;53.174;6.368;2023-03-26T12:04:44;9.40;99.90
51839;DHT22;37886;53.174;6.368;2023-03-26T12:10:04;9.50;99.90
51839;DHT22;37886;53.174;6.368;2023-03-26T12:12:33;9.30;99.90
51839;DHT22;37886;53.174;6.368;2023-03-26T12:15:01;9.20;99.90
51839;DHT22;37886;53.174;6.368;2023-03-26T12:17:31;9.40;99.90
51839;DHT22;37886;53.174;6.368;2023-03-26T12:19:57;9.50;99.90
51839;DHT22;37886;53.174;6.368;2023-03-26T12:22:36;9.30;99.90
51839;DHT22;37886;53.174;6.368;2023-03-26T12:25:23;9.30;99.90
51839;DHT22;37886;53.174;6.368;2023-03-26T12:30:24;9.20;99.90
51839;DHT22;37886;53.174;6.368;2023-03-26T12:32:51;9.50;99.90
51839;DHT22;37886;53.174;6.368;2023-03-26T12:35:25;9.60;99.90
51839;DHT22;37886;53.174;6.368;2023-03-26T12:37:53;9.60;99.90
51839;DHT22;37886;53.174;6.368;2023-03-26T12:40:34;9.60;99.90
51839;DHT22;37886;53.174;6.368;2023-03-26T12:43:03;9.60;99.90
51839;DHT22;37886;53.174;6.368;2023-03-26T12:45:36;9.80;99.90
51839;DHT22;37886;53.174;6.368;2023-03-26T12:48:02;9.70;99.90
51839;DHT22;37886;53.174;6.368;2023-03-26T12:55:58;9.30;99.90
51839;DHT22;37886;53.174;6.368;2023-03-26T13:04:13;9.10;99.90
51839;DHT22;37886;53.174;6.368;2023-03-26T13:06:44;9.20;99.90
51839;DHT22;37886;53.174;6.368;2023-03-26T13:14:41;9.90;99.90
51839;DHT22;37886;53.174;6.368;2023-03-26T13:20:11;10.10;99.90
51839;DHT22;37886;53.174;6.368;2023-03-26T13:23:33;9.90;99.90
51839;DHT22;37886;53.174;6.368;2023-03-26T13:42:24;8.70;99.90
51839;DHT22;37886;53.174;6.368;2023-03-26T13:47:28;8.80;99.90
51839;DHT22;37886;53.174;6.368;2023-03-26T13:50:23;8.70;99.90
51839;DHT22;37886;53.174;6.368;2023-03-26T13:53:06;8.50;99.90
51839;DHT22;37886;53.174;6.368;2023-03-26T13:55:49;8.50;99.90
51839;DHT22;37886;53.174;6.368;2023-03-26T13:58:42;8.60;99.90
51839;DHT22;37886;53.174;6.368;2023-03-26T14:01:10;8.80;99.90
51839;DHT22;37886;53.174;6.368;2023-03-26T14:04:13;8.60;99.90
51839;DHT22;37886;53.174;6.368;2023-03-26T14:06:54;8.60;99.90
51839;DHT22;37886;53.174;6.368;2023-03-26T14:09:28;8.50;99.90
51839;DHT22;37886;53.174;6.368;2023-03-26T14:14:47;8.60;99.90
51839;DHT22;37886;53.174;6.368;2023-03-26T14:17:46;8.50;99.90
51839;DHT22;37886;53.174;6.368;2023-03-26T14:23:33;8.40;99.90
51839;DHT22;37886;53.174;6.368;2023-03-26T14:29:12;8.70;99.90
51839;DHT22;37886;53.174;6.368;2023-03-26T14:38:02;8.80;99.90
51839;DHT22;37886;53.174;6.368;2023-03-26T14:40:35;8.60;99.90
51839;DHT22;37886;53.174;6.368;2023-03-26T14:54:12;8.90;99.90
51839;DHT22;37886;53.174;6.368;2023-03-26T14:57:04;8.70;99.90
51839;DHT22;37886;53.174;6.368;2023-03-26T15:07:51;8.70;99.90
51839;DHT22;37886;53.174;6.368;2023-03-26T15:16:28;8.20;99.90
51839;DHT22;37886;53.174;6.368;2023-03-26T15:36:31;9.80;99.90
51839;DHT22;37886;53.174;6.368;2023-03-26T15:46:55;9.50;99.90
51839;DHT22;37886;53.174;6.368;2023-03-26T15:49:39;9.60;99.90
51839;DHT22;37886;53.174;6.368;2023-03-26T16:00:23;8.10;99.90
51839;DHT22;37886;53.174;6.368;2023-03-26T16:13:22;9.30;99.90
51839;DHT22;37886;53.174;6.368;2023-03-26T16:18:35;10.30;99.10
51839;DHT22;37886;53.174;6.368;2023-03-26T16:26:36;9.30;99.90
51839;DHT22;37886;53.174;6.368;2023-03-26T16:45:33;7.10;99.90
51839;DHT22;37886;53.174;6.368;2023-03-26T16:51:14;7.20;99.90
51839;DHT22;37886;53.174;6.368;2023-03-26T16:53:53;7.20;99.90
51839;DHT22;37886;53.174;6.368;2023-03-26T17:02:11;7.10;99.90
51839;DHT22;37886;53.174;6.368;2023-03-26T17:04:45;7.00;99.90
51839;DHT22;37886;53.174;6.368;2023-03-26T17:07:31;6.90;99.90
51839;DHT22;37886;53.174;6.368;2023-03-26T17:13:01;6.70;99.90
51839;DHT22;37886;53.174;6.368;2023-03-26T17:15:42;6.60;99.90
51839;DHT22;37886;53.174;6.368;2023-03-26T17:18:31;6.50;99.90
51839;DHT22;37886;53.174;6.368;2023-03-26T17:21:16;6.50;99.90
51839;DHT22;37886;53.174;6.368;2023-03-26T17:32:14;6.40;99.90
51839;DHT22;37886;53.174;6.368;2023-03-26T17:34:54;6.30;99.90
51839;DHT22;37886;53.174;6.368;2023-03-26T17:44:55;6.20;99.90
51839;DHT22;37886;53.174;6.368;2023-03-26T17:50:00;6.00;99.90
51839;DHT22;37886;53.174;6.368;2023-03-26T17:52:53;5.90;99.90
51839;DHT22;37886;53.174;6.368;2023-03-26T17:55:31;5.90;99.90
51839;DHT22;37886;53.174;6.368;2023-03-26T17:57:59;5.70;99.90
51839;DHT22;37886;53.174;6.368;2023-03-26T18:00:35;5.60;99.90
51839;DHT22;37886;53.174;6.368;2023-03-26T18:03:28;5.50;99.90
51839;DHT22;37886;53.174;6.368;2023-03-26T18:06:08;5.40;99.90
51839;DHT22;37886;53.174;6.368;2023-03-26T18:11:27;5.20;99.90
51839;DHT22;37886;53.174;6.368;2023-03-26T18:16:56;5.00;99.90
51839;DHT22;37886;53.174;6.368;2023-03-26T18:19:22;4.90;99.90
51839;DHT22;37886;53.174;6.368;2023-03-26T18:21:51;4.80;99.90
51839;DHT22;37886;53.174;6.368;2023-03-26T18:24:21;4.70;99.90
51839;DHT22;37886;53.174;6.368;2023-03-26T18:27:08;4.70;99.90
51839;DHT22;37886;53.174;6.368;2023-03-26T18:29:36;4.70;99.90
51839;DHT22;37886;53.174;6.368;2023-03-26T18:34:39;4.60;99.90
51839;DHT22;37886;53.174;6.368;2023-03-26T18:37:17;4.50;99.90
51839;DHT22;37886;53.174;6.368;2023-03-26T18:40:07;4.50;99.90
51839;DHT22;37886;53.174;6.368;2023-03-26T18:42:43;4.40;99.90
51839;DHT22;37886;53.174;6.368;2023-03-26T18:47:54;4.20;99.90
51839;DHT22;37886;53.174;6.368;2023-03-26T18:50:26;4.20;99.90
51839;DHT22;37886;53.174;6.368;2023-03-26T18:52:54;4.20;99.90
51839;DHT22;37886;53.174;6.368;2023-03-26T18:55:20;4.10;99.90
51839;DHT22;37886;53.174;6.368;2023-03-26T18:57:49;4.10;99.90
51839;DHT22;37886;53.174;6.368;2023-03-26T19:00:22;4.10;99.90
51839;DHT22;37886;53.174;6.368;2023-03-26T19:03:03;4.00;99.90
51839;DHT22;37886;53.174;6.368;2023-03-26T19:05:31;4.00;99.90
51839;DHT22;37886;53.174;6.368;2023-03-26T19:08:00;4.00;99.90
51839;DHT22;37886;53.174;6.368;2023-03-26T19:10:28;4.00;99.90
51839;DHT22;37886;53.174;6.368;2023-03-26T19:13:02;4.00;99.90
51839;DHT22;37886;53.174;6.368;2023-03-26T19:15:33;4.00;99.90
51839;DHT22;37886;53.174;6.368;2023-03-26T19:18:05;4.00;99.90
51839;DHT22;37886;53.174;6.368;2023-03-26T19:20:43;4.10;99.90
51839;DHT22;37886;53.174;6.368;2023-03-26T19:23:15;4.00;99.90
51839;DHT22;37886;53.174;6.368;2023-03-26T19:25:55;4.10;99.90
51839;DHT22;37886;53.174;6.368;2023-03-26T19:28:30;4.10;99.90
51839;DHT22;37886;53.174;6.368;2023-03-26T19:33:58;4.00;99.90
51839;DHT22;37886;53.174;6.368;2023-03-26T19:36:28;4.00;99.90
51839;DHT22;37886;53.174;6.368;2023-03-26T19:41:25;3.80;99.90
51839;DHT22;37886;53.174;6.368;2023-03-26T19:43:55;3.80;99.90
51839;DHT22;37886;53.174;6.368;2023-03-26T19:46:24;3.70;99.90
51839;DHT22;37886;53.174;6.368;2023-03-26T19:48:56;3.70;99.90
51839;DHT22;37886;53.174;6.368;2023-03-26T19:51:36;3.70;99.90
51839;DHT22;37886;53.174;6.368;2023-03-26T19:54:10;3.70;99.90
51839;DHT22;37886;53.174;6.368;2023-03-26T19:56:36;3.70;99.90
51839;DHT22;37886;53.174;6.368;2023-03-26T19:59:02;3.60;99.90
51839;DHT22;37886;53.174;6.368;2023-03-26T20:01:30;3.60;99.90
51839;DHT22;37886;53.174;6.368;2023-03-26T20:04:04;3.50;99.90
51839;DHT22;37886;53.174;6.368;2023-03-26T20:06:31;3.60;99.90
51839;DHT22;37886;53.174;6.368;2023-03-26T20:08:58;3.50;99.90
51839;DHT22;37886;53.174;6.368;2023-03-26T20:11:31;3.60;99.90
51839;DHT22;37886;53.174;6.368;2023-03-26T20:13:59;3.60;99.90
51839;DHT22;37886;53.174;6.368;2023-03-26T20:16:31;3.60;99.90
51839;DHT22;37886;53.174;6.368;2023-03-26T20:18:58;3.60;99.90
51839;DHT22;37886;53.174;6.368;2023-03-26T20:21:27;3.60;99.90
51839;DHT22;37886;53.174;6.368;2023-03-26T20:23:53;3.60;99.90
51839;DHT22;37886;53.174;6.368;2023-03-26T20:26:21;3.50;99.90
51839;DHT22;37886;53.174;6.368;2023-03-26T20:28:46;3.60;99.90
51839;DHT22;37886;53.174;6.368;2023-03-26T20:31:18;3.60;99.90
51839;DHT22;37886;53.174;6.368;2023-03-26T20:33:47;3.50;99.90
51839;DHT22;37886;53.174;6.368;2023-03-26T20:36:14;3.50;99.90
51839;DHT22;37886;53.174;6.368;2023-03-26T20:38:42;3.50;99.90
51839;DHT22;37886;53.174;6.368;2023-03-26T20:41:19;3.50;99.90
51839;DHT22;37886;53.174;6.368;2023-03-26T20:43:47;3.50;99.90
51839;DHT22;37886;53.174;6.368;2023-03-26T20:46:24;3.50;99.90
51839;DHT22;37886;53.174;6.368;2023-03-26T20:48:50;3.50;99.90
51839;DHT22;37886;53.174;6.368;2023-03-26T20:51:17;3.50;99.90
51839;DHT22;37886;53.174;6.368;2023-03-26T20:53:45;3.50;99.90
51839;DHT22;37886;53.174;6.368;2023-03-26T20:56:21;3.40;99.90
51839;DHT22;37886;53.174;6.368;2023-03-26T20:58:48;3.40;99.90
51839;DHT22;37886;53.174;6.368;2023-03-26T21:01:14;3.40;99.90
51839;DHT22;37886;53.174;6.368;2023-03-26T21:03:42;3.30;99.90
51839;DHT22;37886;53.174;6.368;2023-03-26T21:06:11;3.30;99.90
51839;DHT22;37886;53.174;6.368;2023-03-26T21:08:41;3.30;99.90
51839;DHT22;37886;53.174;6.368;2023-03-26T21:11:24;3.30;99.90
51839;DHT22;37886;53.174;6.368;2023-03-26T21:14:02;3.20;99.90
51839;DHT22;37886;53.174;6.368;2023-03-26T21:16:31;3.20;99.90
51839;DHT22;37886;53.174;6.368;2023-03-26T21:18:57;3.20;99.90
51839;DHT22;37886;53.174;6.368;2023-03-26T21:27:11;3.40;99.90
51839;DHT22;37886;53.174;6.368;2023-03-26T21:29:41;3.40;99.90
51839;DHT22;37886;53.174;6.368;2023-03-26T21:32:09;3.30;99.90
51839;DHT22;37886;53.174;6.368;2023-03-26T21:34:35;3.40;99.90
51839;DHT22;37886;53.174;6.368;2023-03-26T21:37:02;3.30;99.90
51839;DHT22;37886;53.174;6.368;2023-03-26T21:39:27;3.30;99.90
51839;DHT22;37886;53.174;6.368;2023-03-26T21:41:54;3.20;99.90
51839;DHT22;37886;53.174;6.368;2023-03-26T21:44:20;3.10;99.90
51839;DHT22;37886;53.174;6.368;2023-03-26T21:46:47;3.20;99.90
51839;DHT22;37886;53.174;6.368;2023-03-26T21:49:15;3.10;99.90
51839;DHT22;37886;53.174;6.368;2023-03-26T21:51:41;3.10;99.90
51839;DHT22;37886;53.174;6.368;2023-03-26T21:54:23;3.10;99.90
51839;DHT22;37886;53.174;6.368;2023-03-26T21:57:30;3.10;99.90
51839;DHT22;37886;53.174;6.368;2023-03-26T22:00:08;3.10;99.90
51839;DHT22;37886;53.174;6.368;2023-03-26T22:03:05;3.10;99.90
51839;DHT22;37886;53.174;6.368;2023-03-26T22:08:28;3.10;99.90
51839;DHT22;37886;53.174;6.368;2023-03-26T22:10:54;3.10;99.90
51839;DHT22;37886;53.174;6.368;2023-03-26T22:13:20;3.10;99.90